• Join FlightAware (Why Join?)
  • Login
  • US Flag 
02:16AM EDT


 

Airport Tracker/Info


-or-


 

Live Flight TrackerFlight Track Log ✈ ASQ4537 ✈ 23-Aug-2013 ✈ KEWR - KMEM

Flight Track Log - Related Links

Times and Time Zones

All times are in EDT time to prevent confusion due to time zone crossing. See the ASQ4537 flight status page for this flight to view local times or setup timezone preferences in your user account.

Time Position Orientation Groundspeed Altitude Reporting Facility
EDT Latitude Longitude Course Direction KTS MPH feet Rate Location/Type
09:39AM 40.7333 -74.1167 237° Southwest 192 221 2,500  Level New York TRACON
09:40AM 40.7833 -74.0833 27° Northeast 241 277 3,500 780 Climbing New York TRACON
09:41AM 40.8167 -74.1667 298° West 252 290 4,100 1,380 Climbing New York TRACON
09:42AM 40.6834 -74.7453 270° West  Level FlightAware Approximate
09:42AM 40.8500 -74.2500 298° West 256 295 6,300  Level New York TRACON
09:43AM 40.6834 -74.8900 270° West  Level FlightAware Approximate
09:44AM 40.6723 -75.0331 258° West  Level FlightAware Approximate
09:45AM 40.6364 -75.1606 237° Southwest  Level FlightAware Approximate
09:45AM 40.8258 -74.4978 263° West 284 327 10,900  Level New York Center
09:46AM 40.7969 -74.6114 251° West 314 361 11,700 600 Climbing New York Center
09:47AM 40.7683 -74.7247 252° West 327 376 12,200 1,020 Climbing New York Center
09:48AM 40.7414 -74.8439 253° West 338 389 13,800 1,500 Climbing New York Center
09:49AM 40.7147 -74.9489 252° West 338 389 15,300 1,380 Climbing New York Center
09:50AM 40.6833 -75.0703 251° West 343 395 16,600 1,200 Climbing New York Center
09:51AM 40.6289 -75.1925 240° Southwest 348 400 17,800 900 Climbing New York Center
09:52AM 40.5808 -75.3014 240° Southwest 369 425 18,500 780 Climbing New York Center
09:53AM 40.5306 -75.4156 240° Southwest 376 433 19,400 900 Climbing New York Center
09:54AM 40.4761 -75.5294 238° Southwest 371 427 20,300 900 Climbing New York Center
09:55AM 40.4256 -75.6431 240° Southwest 371 427 21,300 1,080 Climbing New York Center
09:56AM 40.3728 -75.7564 239° Southwest 371 427 22,500 1,140 Climbing New York Center
09:57AM 40.3200 -75.8725 239° Southwest 371 427 23,600 1,080 Climbing New York Center
09:58AM 40.2583 -75.9958 237° Southwest 380 437 24,700 1,080 Climbing New York Center
09:59AM 40.2053 -76.1114 239° Southwest 374 430 25,800 1,200 Climbing New York Center
10:00AM 40.1611 -76.2114 240° Southwest 367 422 27,100 1,500 Climbing New York Center
10:01AM 40.1033 -76.3289 237° Southwest 367 422 28,900 1,440 Climbing New York Center
10:02AM 40.0544 -76.4361 239° Southwest 354 407 30,000 1,080 Climbing New York Center
10:03AM 40.0056 -76.5433 239° Southwest 347 399 31,100 1,020 Climbing New York Center
10:04AM 39.9567 -76.6478 239° Southwest 347 399 32,100 780 Climbing New York Center
10:06AM 39.8400 -76.8886 238° Southwest 346 398 34,000 540 Climbing Washington Center
10:07AM 39.7867 -77.0036 239° Southwest 352 405 34,000  Level Washington Center
10:08AM 39.7311 -77.1242 239° Southwest 377 434 34,000  Level Washington Center
10:09AM 39.6711 -77.2467 238° Southwest 395 455 34,000  Level Washington Center
10:10AM 39.6131 -77.3719 239° Southwest 400 460 34,000 660 Level Washington Center
10:11AM 39.5569 -77.4917 239° Southwest 400 460 35,400 960 Climbing Washington Center
10:12AM 39.5008 -77.6086 238° Southwest 394 453 36,000 240 Climbing Washington Center
10:13AM 39.4383 -77.7414 239° Southwest 394 453 36,000  Level Washington Center
10:14AM 39.3819 -77.8606 239° Southwest 394 453 36,000  Level Washington Center
10:15AM 39.3336 -77.9825 243° Southwest 394 453 36,000  Level Washington Center
10:16AM 39.2831 -78.1094 243° Southwest 389 448 36,000  Level Washington Center
10:17AM 39.2303 -78.2361 242° Southwest 395 455 36,000  Level Washington Center
10:18AM 39.1794 -78.3656 243° Southwest 400 460 36,000  Level Washington Center
10:19AM 39.1286 -78.4947 243° Southwest 405 466 36,000  Level Washington Center
10:20AM 39.0775 -78.6211 243° Southwest 405 466 36,000  Level Washington Center
10:21AM 39.0242 -78.7497 242° Southwest 405 466 36,000  Level Washington Center
10:22AM 38.9728 -78.8783 243° Southwest 405 466 36,000  Level Washington Center
10:23AM 38.9211 -79.0069 243° Southwest 405 466 36,000  Level Washington Center
10:24AM 38.8675 -79.1350 242° Southwest 405 466 36,000  Level Washington Center
10:25AM 38.8281 -79.2692 249° West 405 466 36,000  Level Washington Center
10:26AM 38.8031 -79.4036 257° West 399 459 36,000  Level Washington Center
10:27AM 38.7775 -79.5436 257° West 399 459 36,000  Level Washington Center
10:28AM 38.7564 -79.6756 258° West 410 472 36,000  Level Washington Center
10:29AM 38.7331 -79.8125 258° West 410 472 36,000  Level Washington Center
10:30AM 38.7072 -79.9494 256° West 410 472 36,000  Level Washington Center
10:31AM 38.6789 -80.0994 256° West 410 472 36,000  Level Washington Center
10:33AM 38.6389 -80.2856 255° West 395 455 36,000  Level Indianapolis Center
10:34AM 38.6128 -80.4244 257° West 401 461 36,000  Level Indianapolis Center
10:35AM 38.5883 -80.5597 257° West 394 453 36,000  Level Indianapolis Center
10:36AM 38.5619 -80.6978 256° West 399 459 36,000  Level Indianapolis Center
10:37AM 38.5344 -80.8364 256° West 402 463 36,000  Level Indianapolis Center
10:38AM 38.5083 -80.9756 257° West 402 463 36,000  Level Indianapolis Center
10:39AM 38.4797 -81.1147 255° West 402 463 36,000  Level Indianapolis Center
10:40AM 38.4464 -81.2831 256° West 405 466 36,000  Level Indianapolis Center
10:41AM 38.4183 -81.4244 256° West 407 468 36,000  Level Indianapolis Center
10:42AM 38.3900 -81.5667 256° West 410 472 36,000  Level Indianapolis Center
10:43AM 38.3619 -81.7075 256° West 407 468 36,000  Level Indianapolis Center
10:44AM 38.3278 -81.8444 252° West 406 467 36,000  Level Indianapolis Center
10:45AM 38.2903 -81.9803 251° West 406 467 36,000  Level Indianapolis Center
10:46AM 38.2514 -82.1147 250° West 405 466 36,000  Level Indianapolis Center
10:47AM 38.2067 -82.2794 251° West 408 470 36,000  Level Indianapolis Center
10:48AM 38.1672 -82.4142 250° West 408 470 36,000  Level Indianapolis Center
10:49AM 38.1269 -82.5558 250° West 407 468 36,000  Level Indianapolis Center
10:50AM 38.0889 -82.6911 250° West 407 468 36,000  Level Indianapolis Center
10:51AM 38.0483 -82.8267 249° West 410 472 36,000  Level Indianapolis Center
10:52AM 38.0092 -82.9622 250° West 411 473 36,000  Level Indianapolis Center
10:53AM 37.9703 -83.0992 250° West 413 475 36,000  Level Indianapolis Center
10:54AM 37.9236 -83.2558 249° West 411 473 36,000  Level Indianapolis Center
10:55AM 37.8831 -83.3919 249° West 414 476 36,000  Level Indianapolis Center
10:56AM 37.8425 -83.5289 249° West 417 480 36,000  Level Indianapolis Center
10:57AM 37.8017 -83.6658 249° West 418 481 36,000  Level Indianapolis Center
10:58AM 37.7536 -83.8264 249° West 418 481 36,000  Level Indianapolis Center
10:59AM 37.7128 -83.9636 249° West 416 479 36,000  Level Indianapolis Center
11:00AM 37.6711 -84.0997 249° West 416 479 36,000  Level Indianapolis Center
11:02AM 37.6294 -84.2350 249° West 415 478 36,000  Level Indianapolis Center
11:03AM 37.5875 -84.3711 249° West 416 479 36,000  Level Indianapolis Center
11:04AM 37.5389 -84.5308 249° West 419 482 36,000  Level Indianapolis Center
11:05AM 37.4958 -84.6658 248° West 417 480 36,000  Level Indianapolis Center
11:06AM 37.4539 -84.7997 248° West 413 475 36,000  Level Indianapolis Center
11:07AM 37.4133 -84.9358 249° West 416 479 36,000  Level Indianapolis Center
11:08AM 37.3714 -85.0697 249° West 412 474 36,000  Level Indianapolis Center
11:09AM 37.3289 -85.2047 248° West 414 476 36,000  Level Indianapolis Center
11:10AM 37.2767 -85.3636 248° West 420 483 36,000  Level Indianapolis Center
11:11AM 37.2333 -85.4992 248° West 418 481 36,000  Level Indianapolis Center
11:12AM 37.1903 -85.6411 249° West 423 487 36,000  Level Indianapolis Center
11:13AM 37.1461 -85.7783 248° West 420 483 36,000  Level Indianapolis Center
11:14AM 37.1003 -85.9153 247° West 422 486 36,000  Level Indianapolis Center
11:15AM 37.0556 -86.0536 248° West 425 489 36,000  Level Indianapolis Center
11:16AM 37.0097 -86.1953 248° West 433 498 36,000  Level Indianapolis Center
11:17AM 36.9625 -86.3369 247° West 437 503 36,000  Level Indianapolis Center
11:18AM 36.9322 -86.4275 247° West 436 502 36,000  Level Memphis Center
11:19AM 36.8761 -86.5678 243° Southwest 443 510 36,000  Level Memphis Center
11:20AM 36.8233 -86.6844 241° Southwest 448 516 36,000  Level Memphis Center
11:21AM 36.7647 -86.8192 242° Southwest 448 516 36,000  Level Memphis Center
11:22AM 36.7058 -86.9536 241° Southwest 448 516 36,000  Level Memphis Center
11:23AM 36.6469 -87.0856 241° Southwest 448 516 36,000 -420 Level Memphis Center
11:24AM 36.5878 -87.2169 241° Southwest 448 516 35,200 -540 Descending Memphis Center
11:25AM 36.5286 -87.3486 241° Southwest 448 516 35,000 -120 Descending Memphis Center
11:26AM 36.4669 -87.4797 240° Southwest 448 516 35,000  Level Memphis Center
11:27AM 36.4075 -87.6133 241° Southwest 448 516 35,000 -120 Level Memphis Center
11:28AM 36.3500 -87.7442 241° Southwest 443 510 34,800 -600 Descending Memphis Center
11:29AM 36.2900 -87.8750 240° Southwest 443 510 33,800 -960 Descending Memphis Center
11:30AM 36.2300 -88.0028 240° Southwest 443 510 32,900 -1,020 Descending Memphis Center
11:31AM 36.1639 -88.1461 240° Southwest 448 516 31,800 -1,200 Descending Memphis Center
11:32AM 36.1014 -88.2789 240° Southwest 448 516 30,600 -1,620 Descending Memphis Center
11:33AM 36.0411 -88.4086 240° Southwest 448 516 28,700 -1,920 Descending Memphis Center
11:34AM 35.9764 -88.5436 239° Southwest 453 521 26,800 -1,800 Descending Memphis Center
11:35AM 35.9239 -88.6550 240° Southwest 464 534 25,200 -1,440 Descending Memphis Center
11:36AM 35.8528 -88.8025 239° Southwest 464 534 24,000 -960 Descending Memphis Center
11:37AM 35.7878 -88.9419 240° Southwest 464 534 23,300 -1,260 Descending Memphis Center
11:38AM 35.7264 -89.0681 239° Southwest 459 528 21,600 -2,100 Descending Memphis Center
11:39AM 35.6544 -89.1689 229° Southwest 418 481 19,100 -2,580 Descending Memphis Center
11:40AM 35.5742 -89.2747 227° Southwest 410 472 16,500 -2,700 Descending Memphis Center
11:41AM 35.4894 -89.3803 225° Southwest 410 472 13,700 -2,340 Descending Memphis Center
11:42AM 35.4192 -89.4703 226° Southwest 383 441 11,900 -1,560 Descending Memphis Center
11:43AM 35.3614 -89.5450 227° Southwest 340 391 10,600 -1,320 Descending Memphis Center
11:44AM 35.3033 -89.6192 226° Southwest 305 351 9,400 -840 Descending Memphis Center
11:45AM 35.2475 -89.6908 226° Southwest 300 345 9,000 -300 Descending Memphis Center
11:46AM 35.1958 -89.7575 227° Southwest 289 333 8,900 -180 Descending Memphis Center
11:47AM 35.1458 -89.8214 226° Southwest 267 307 8,700 -660 Descending Memphis Center
11:48AM 35.0919 -89.8672 215° Southwest 254 292 7,600 -1,020 Descending Memphis Center
11:49AM 35.0253 -89.8678 180° South 240 276 6,700 -1,020 Descending Memphis Center
11:50AM 34.9564 -89.8681 180° South 240 276 5,600 -1,080 Descending Memphis Center
11:51AM 34.8875 -89.8658 178° South 235 270 4,600 -1,080 Descending Memphis Center
11:52AM 34.8333 -89.8992 207° Southwest 218 251 3,500 -840 Descending Memphis Center
11:53AM 34.8522 -89.9647 289° West 167 192 3,000 -420 Descending Memphis Center
11:53AM 34.9000 -89.9667 358° North 216 249 2,800 -720 Descending KMEM
11:54AM 34.9500 -89.9667 360° North 197 227 1,800 -900 Descending KMEM
11:55AM 34.9833 -89.9667 360° North 122 140 1,100 -720 Descending KMEM